Goodhue, Minnesota
Current Conditions -  °F | °C
As of 2:34 AM on Tuesday 21 Oct 2014 (Local Time) from KRGK Reporting Station
Clear Clear  
Wind Chill: 36°   Ceiling: Unl
Heat Index: 36°   Visibility: 10mi
Dew Point: 34°   Wind: 0mph
Humidity: 93%   Direction: NA
Pressure: 30.11"   Gusts: NA
Location:  44.4°N, 92.62°W
Report Text: KRGK 210734Z AUTO 00000KT 10SM CLR 02/01 A3011 RMK AO2
Loading
Personal Weather Stations






























Interactive Weather Map
Tropical Storm Tracking
New forecast layout! Learn more

10-Day Weather Forecast

Advertisements
Track Severe Weather on mobile